Time;durP1;ratioP1;P1;durP2;ratioP2;P2;SDS_P1;SDS_P2;PMS_P1;PMS_P2;Temp;Humidity;BMP_temperature;BMP_pressure;BME280_temperature;BME280_humidity;BME280_pressure;Samples;Min_cycle;Max_cycle;Signal;HPM_P1;HPM_P2
2022/12/10 00:01:31;;;;;;;47.25;27.45;;;;;;;1.66;78.38;91252.09;2051620;70;20138;-78
2022/12/10 00:03:57;;;;;;;54.83;27.20;;;;;;;1.72;78.49;91246.94;2051815;70;20241;-77
2022/12/10 00:06:29;;;;;;;46.63;26.92;;;;;;;1.77;78.14;91238.31;2051192;69;20259;-77
2022/12/10 00:08:55;;;;;;;61.67;30.55;;;;;;;1.77;78.30;91235.53;2051442;70;20181;-77
2022/12/10 00:11:22;;;;;;;53.75;28.85;;;;;;;1.82;78.15;91233.03;2051807;69;20230;-77
2022/12/10 00:13:49;;;;;;;54.08;28.40;;;;;;;1.72;78.16;91233.06;2051670;70;20609;-76
2022/12/10 00:16:17;;;;;;;50.28;27.23;;;;;;;1.82;77.76;91231.00;2051279;70;20150;-77
2022/12/10 00:18:44;;;;;;;51.03;27.00;;;;;;;1.88;77.63;91236.22;2051629;70;20150;-77
2022/12/10 00:21:12;;;;;;;44.28;25.48;;;;;;;1.76;78.19;91233.34;2051707;70;20143;-75
2022/12/10 00:23:39;;;;;;;45.97;23.13;;;;;;;1.61;78.67;91230.94;2051487;70;20162;-75
2022/12/10 00:26:08;;;;;;;45.80;24.80;;;;;;;1.63;79.15;91239.38;2050871;70;20158;-76
2022/12/10 00:28:34;;;;;;;41.47;22.83;;;;;;;1.63;79.04;91234.56;2051341;70;20154;-76
2022/12/10 00:31:04;;;;;;;43.20;22.75;;;;;;;1.76;78.28;91227.81;2051688;70;20176;-76
2022/12/10 00:33:30;;;;;;;43.55;24.33;;;;;;;1.76;78.17;91227.81;2051071;70;20633;-76
2022/12/10 00:35:55;;;;;;;42.78;23.77;;;;;;;1.69;78.49;91231.47;2050897;70;20134;-76
2022/12/10 00:38:21;;;;;;;47.97;23.52;;;;;;;1.83;77.89;91226.88;2051163;70;20499;-76
2022/12/10 00:40:50;;;;;;;43.13;24.13;;;;;;;1.63;77.98;91197.78;2051147;70;20161;-76
2022/12/10 00:43:15;;;;;;;41.72;24.00;;;;;;;1.86;77.65;91222.94;2050674;70;20232;-76
2022/12/10 00:45:41;;;;;;;46.90;23.65;;;;;;;1.87;77.57;91218.13;2051530;70;20142;-76
2022/12/10 00:48:06;;;;;;;39.28;21.70;;;;;;;1.80;77.68;91224.59;2050742;70;20194;-75
2022/12/10 00:50:32;;;;;;;40.35;23.83;;;;;;;1.25;79.05;91235.38;2051660;70;20157;-75
2022/12/10 00:52:57;;;;;;;44.50;23.17;;;;;;;1.11;81.45;91239.94;2051491;70;20158;-75
2022/12/10 00:55:23;;;;;;;48.90;24.45;;;;;;;1.38;80.66;91236.97;2050753;70;20154;-75
2022/12/10 00:57:49;;;;;;;47.10;24.75;;;;;;;1.50;80.30;91235.75;2049222;70;20666;-75
2022/12/10 01:00:15;;;;;;;38.58;23.42;;;;;;;1.47;79.75;91233.44;2049250;70;20241;-75
2022/12/10 01:02:40;;;;;;;46.88;23.08;;;;;;;1.59;79.40;91234.28;2050205;70;20150;-75
2022/12/10 01:05:06;;;;;;;43.80;23.85;;;;;;;1.31;80.84;91238.56;2050882;69;20162;-75
2022/12/10 01:07:32;;;;;;;41.47;22.08;;;;;;;1.44;79.66;91235.34;2051080;70;20220;-75
2022/12/10 01:09:57;;;;;;;42.78;23.58;;;;;;;1.43;80.56;91233.91;2050233;70;20196;-75
2022/12/10 01:12:23;;;;;;;41.95;23.55;;;;;;;1.57;79.94;91239.69;2051315;70;20166;-76
2022/12/10 01:14:51;;;;;;;43.80;22.70;;;;;;;1.66;79.38;91236.16;2051536;69;20585;-76
2022/12/10 01:17:16;;;;;;;43.28;22.85;;;;;;;1.63;79.66;91233.84;2050637;69;20190;-76
2022/12/10 01:19:43;;;;;;;44.53;24.42;;;;;;;1.70;78.95;91242.00;2050842;70;20245;-77
2022/12/10 01:22:10;;;;;;;47.50;24.15;;;;;;;1.43;79.86;91236.66;2050892;70;20268;-76
2022/12/10 01:24:36;;;;;;;44.97;23.77;;;;;;;1.44;80.43;91243.66;2051333;70;20561;-76
2022/12/10 01:27:03;;;;;;;44.70;23.52;;;;;;;1.55;79.99;91245.09;2051326;70;20158;-76
2022/12/10 01:29:30;;;;;;;40.45;22.65;;;;;;;1.56;79.59;91246.56;2051564;69;20270;-75
2022/12/10 01:31:57;;;;;;;39.70;22.45;;;;;;;1.56;79.40;91248.59;2051786;70;20184;-74
2022/12/10 01:34:23;;;;;;;42.03;21.70;;;;;;;1.64;79.47;91251.94;2051200;70;20158;-75
2022/12/10 01:36:52;;;;;;;41.22;22.33;;;;;;;1.70;79.13;91247.53;2052066;69;20229;-77
2022/12/10 01:39:19;;;;;;;38.80;22.25;;;;;;;1.62;79.75;91254.56;2052259;70;20550;-76
2022/12/10 01:41:54;;;;;;;38.80;22.23;;;;;;;1.78;78.96;91258.47;2051032;70;20181;-77
2022/12/10 01:44:20;;;;;;;42.88;22.10;;;;;;;1.70;78.62;91263.47;2050852;70;20181;-77
2022/12/10 01:46:48;;;;;;;39.30;21.83;;;;;;;1.45;79.66;91269.34;2050638;70;20550;-75
2022/12/10 01:49:20;;;;;;;39.22;21.92;;;;;;;1.51;79.43;91261.44;2050905;70;20214;-76
2022/12/10 01:51:48;;;;;;;39.15;22.02;;;;;;;1.72;79.07;91260.81;2050858;70;20186;-76
2022/12/10 01:54:38;;;;;;;40.33;22.70;;;;;;;1.63;79.05;91262.28;2053498;70;20154;-76
2022/12/10 01:57:18;;;;;;;;;;;;;;;1.82;78.87;91258.00;2050833;70;20237;-76
2022/12/10 01:59:47;;;;;;;39.00;22.17;;;;;;;1.77;78.90;91268.09;2050546;70;20062;-76
2022/12/10 02:02:36;;;;;;;37.40;22.10;;;;;;;1.78;78.91;91261.97;2050250;69;20224;-76
2022/12/10 02:05:32;;;;;;;36.85;20.85;;;;;;;1.82;78.18;91260.78;2050623;70;20201;-77
2022/12/10 02:08:16;;;;;;;36.85;21.13;;;;;;;1.70;78.64;91258.63;2050657;69;20279;-77
2022/12/10 02:10:59;;;;;;;39.65;21.80;;;;;;;1.57;79.07;91264.66;2049794;70;20212;-77
2022/12/10 02:13:28;;;;;;;40.00;22.40;;;;;;;1.52;80.31;91263.66;2049358;70;20265;-78
2022/12/10 02:16:11;;;;;;;37.75;21.85;;;;;;;1.39;80.19;91272.44;2050011;70;20162;-78
2022/12/10 02:18:46;;;;;;;41.60;23.55;;;;;;;1.59;79.65;91267.56;2047264;70;20166;-76
2022/12/10 02:21:19;;;;;;;37.42;21.90;;;;;;;1.71;79.28;91257.31;2050274;70;20181;-76
2022/12/10 02:23:54;;;;;;;40.20;22.42;;;;;;;1.74;78.80;91247.81;2050712;70;20588;-77
2022/12/10 02:26:55;;;;;;;38.70;21.60;;;;;;;1.72;78.85;91244.91;2050378;69;20189;-76
2022/12/10 02:29:28;;;;;;;35.25;20.77;;;;;;;1.68;78.76;91243.88;2050694;70;20292;-76
2022/12/10 02:32:20;;;;;;;37.28;21.38;;;;;;;1.66;79.45;91246.53;2050994;70;20664;-76
2022/12/10 02:34:51;;;;;;;40.03;21.95;;;;;;;1.71;78.90;91242.72;2050958;69;20184;-76
2022/12/10 02:37:26;;;;;;;37.40;21.42;;;;;;;1.68;79.18;91241.84;2050386;70;20579;-76
2022/12/10 02:39:59;;;;;;;37.88;20.90;;;;;;;1.63;78.68;91242.88;2050056;70;20194;-75
2022/12/10 02:42:30;;;;;;;39.92;21.58;;;;;;;1.57;79.16;91230.66;2050547;70;20148;-76
2022/12/10 02:44:57;;;;;;;38.45;22.40;;;;;;;1.68;78.64;91239.06;2050571;70;20169;-76
2022/12/10 02:47:25;;;;;;;39.45;22.15;;;;;;;1.75;78.47;91227.09;2050372;70;20579;-76
2022/12/10 02:49:55;;;;;;;41.25;21.65;;;;;;;1.62;79.30;91235.88;2050695;70;20172;-76
2022/12/10 02:52:23;;;;;;;38.08;21.83;;;;;;;1.71;79.28;91234.41;2050739;70;20164;-76
2022/12/10 02:54:52;;;;;;;39.53;22.95;;;;;;;1.71;79.56;91226.06;2050275;70;20514;-76
2022/12/10 02:57:33;;;;;;;39.72;21.88;;;;;;;1.62;79.89;91221.28;2050696;70;20174;-76
2022/12/10 03:00:02;;;;;;;39.20;22.63;;;;;;;1.60;79.83;91216.31;2051116;70;20147;-76
2022/12/10 03:02:48;;;;;;;47.78;25.35;;;;;;;1.61;79.69;91208.75;2050684;70;20146;-76
2022/12/10 03:05:22;;;;;;;47.00;23.05;;;;;;;1.69;78.99;91206.50;2050828;70;20522;-76
2022/12/10 03:08:05;;;;;;;39.80;21.92;;;;;;;1.54;80.19;91215.91;2051238;70;20212;-75
2022/12/10 03:10:55;;;;;;;41.65;23.05;;;;;;;1.72;79.24;91206.06;2050457;70;20490;-75
2022/12/10 03:13:33;;;;;;;41.72;22.17;;;;;;;1.52;79.60;91201.91;2051383;70;20142;-76
2022/12/10 03:16:01;;;;;;;44.45;21.75;;;;;;;1.40;80.58;91207.31;2050647;70;20701;-76
2022/12/10 03:18:33;;;;;;;39.15;22.38;;;;;;;1.29;81.46;91216.28;2050448;70;20684;-75
2022/12/10 03:21:03;;;;;;;38.38;21.50;;;;;;;1.21;81.08;91219.19;2051080;70;20192;-77
2022/12/10 03:23:32;;;;;;;37.40;21.13;;;;;;;1.43;80.91;91213.75;2051123;70;20290;-76
2022/12/10 03:25:58;;;;;;;36.72;21.08;;;;;;;1.46;80.32;91215.34;2050683;70;20562;-77
2022/12/10 03:28:26;;;;;;;35.80;21.33;;;;;;;1.18;81.31;91228.66;2047857;70;20607;-76
2022/12/10 03:30:54;;;;;;;39.72;20.85;;;;;;;1.25;81.96;91227.06;2051145;70;20139;-77
2022/12/10 03:33:20;;;;;;;41.38;21.58;;;;;;;1.45;80.94;91224.97;2050486;70;20241;-76
2022/12/10 03:35:47;;;;;;;40.33;22.13;;;;;;;1.33;80.99;91224.88;2050651;70;20166;-76
2022/12/10 03:38:14;;;;;;;37.92;21.77;;;;;;;1.49;80.60;91225.25;2050283;70;20213;-77
2022/12/10 03:40:40;;;;;;;39.08;22.10;;;;;;;1.38;81.01;91218.28;2048595;70;20158;-76
2022/12/10 03:43:06;;;;;;;37.78;21.65;;;;;;;1.46;80.35;91215.34;2050536;70;20225;-75
2022/12/10 03:45:32;;;;;;;36.45;21.73;;;;;;;1.47;80.44;91212.00;2051022;70;20169;-76
2022/12/10 03:47:58;;;;;;;36.20;20.02;;;;;;;1.52;80.65;91204.69;2051126;70;20630;-77
2022/12/10 03:50:23;;;;;;;36.28;21.30;;;;;;;1.38;80.80;91198.16;2051362;70;20190;-77
2022/12/10 03:52:50;;;;;;;40.20;22.60;;;;;;;1.50;80.41;91196.22;2051344;70;20189;-76
2022/12/10 03:55:15;;;;;;;36.97;22.20;;;;;;;1.45;80.49;91191.69;2049824;70;20134;-77
2022/12/10 03:57:41;;;;;;;36.47;20.77;;;;;;;1.55;80.01;91186.84;2046954;70;20242;-76
2022/12/10 04:00:07;;;;;;;38.22;21.00;;;;;;;1.64;79.46;91202.00;2051243;70;20209;-77
2022/12/10 04:02:40;;;;;;;34.20;20.77;;;;;;;1.62;79.61;91204.66;2051591;70;20181;-74
2022/12/10 04:05:06;;;;;;;37.78;21.70;;;;;;;1.61;79.76;91211.53;2051257;69;20309;-76
2022/12/10 04:07:32;;;;;;;37.88;20.90;;;;;;;1.53;79.67;91212.41;2051606;69;20241;-76
2022/12/10 04:09:58;;;;;;;37.08;21.33;;;;;;;1.49;80.09;91214.16;2051525;70;20151;-76
2022/12/10 04:12:23;;;;;;;38.80;21.70;;;;;;;1.26;80.51;91203.56;2051517;70;20145;-75
2022/12/10 04:17:34;;;;;;;40.17;22.58;;;;;;;1.04;82.38;91218.63;2050486;70;20208;-76
2022/12/10 04:20:00;;;;;;;37.45;22.38;;;;;;;1.13;82.35;91221.38;2049930;70;20176;-77
2022/12/10 04:28:02;;;;;;;42.08;22.58;;;;;;;1.47;80.12;91227.91;2050635;70;20262;-76
2022/12/10 04:30:27;;;;;;;41.42;22.63;;;;;;;1.55;80.03;91227.72;2051054;70;20150;-76
2022/12/10 04:32:53;;;;;;;38.03;22.10;;;;;;;1.62;79.69;91230.34;2051478;70;20157;-76
2022/12/10 04:35:19;;;;;;;40.35;22.73;;;;;;;1.62;79.46;91227.56;2051201;70;20158;-77
2022/12/10 04:37:44;;;;;;;39.97;22.35;;;;;;;1.51;79.95;91222.63;2051565;70;20149;-77
2022/12/10 04:40:11;;;;;;;38.20;22.00;;;;;;;1.55;80.04;91219.41;2051396;70;20149;-76
2022/12/10 04:42:36;;;;;;;38.35;21.42;;;;;;;1.60;79.49;91219.09;2050866;70;20307;-76
2022/12/10 04:45:02;;;;;;;39.53;21.83;;;;;;;1.41;80.16;91217.09;2051293;69;20216;-74
2022/12/10 04:47:27;;;;;;;37.42;21.58;;;;;;;1.37;80.87;91227.19;2051528;70;20146;-75
2022/12/10 04:49:54;;;;;;;39.08;22.02;;;;;;;1.44;80.53;91221.47;2050895;69;20181;-74
2022/12/10 04:52:20;;;;;;;37.42;21.25;;;;;;;1.39;81.06;91216.97;2050265;70;20143;-73
2022/12/10 04:54:45;;;;;;;35.03;21.45;;;;;;;1.31;81.39;91221.94;2050962;69;20154;-76
2022/12/10 04:57:11;;;;;;;36.90;21.77;;;;;;;1.45;80.40;91217.38;2051164;70;20143;-74
2022/12/10 04:59:37;;;;;;;37.65;21.10;;;;;;;1.57;79.93;91216.78;2050400;69;20523;-75
2022/12/10 05:02:05;;;;;;;35.72;21.38;;;;;;;1.62;79.53;91221.28;2050354;70;20205;-76
2022/12/10 05:04:30;;;;;;;38.55;22.33;;;;;;;1.59;79.25;91216.91;2050549;69;20149;-75
2022/12/10 05:06:56;;;;;;;37.90;21.77;;;;;;;1.46;79.82;91221.59;2051345;70;20163;-76
2022/12/10 05:09:25;;;;;;;38.33;21.60;;;;;;;1.44;80.56;91215.22;2050721;70;20276;-75
2022/12/10 05:11:51;;;;;;;39.92;22.60;;;;;;;1.42;80.76;91221.34;2050801;70;20693;-76
2022/12/10 05:14:16;;;;;;;36.22;21.90;;;;;;;1.58;79.53;91216.19;2050491;70;20149;-75
2022/12/10 05:16:43;;;;;;;37.88;20.42;;;;;;;1.57;79.20;91223.06;2051155;70;20178;-76
2022/12/10 05:19:09;;;;;;;37.15;21.35;;;;;;;1.55;79.76;91216.63;2051412;70;20186;-76
2022/12/10 05:24:20;;;;;;;36.70;20.38;;;;;;;1.66;79.09;91213.25;2051213;70;20153;-76
2022/12/10 05:26:50;;;;;;;37.72;21.98;;;;;;;1.65;79.18;91217.31;2047527;70;20150;-76
2022/12/10 05:29:16;;;;;;;36.83;21.70;;;;;;;1.68;78.49;91214.09;2047619;70;20253;-75
2022/12/10 05:31:42;;;;;;;39.25;21.50;;;;;;;1.55;79.40;91217.34;2048820;70;20188;-75
2022/12/10 05:34:10;;;;;;;37.17;21.45;;;;;;;1.63;79.13;91217.91;2051107;69;20614;-75
2022/12/10 05:36:35;;;;;;;34.78;21.20;;;;;;;1.67;78.91;91223.03;2051032;69;20186;-75
2022/12/10 05:39:05;;;;;;;36.13;21.00;;;;;;;1.59;78.64;91217.63;2051198;70;20609;-76
2022/12/10 05:41:35;;;;;;;35.80;21.20;;;;;;;1.50;79.61;91230.22;2051393;70;20165;-75
2022/12/10 05:44:01;;;;;;;37.90;22.15;;;;;;;1.04;81.89;91221.41;2050191;70;20151;-75
2022/12/10 05:46:29;;;;;;;37.72;21.48;;;;;;;1.16;81.87;91227.81;2049834;70;20142;-76
2022/12/10 05:48:56;;;;;;;37.90;21.33;;;;;;;1.25;81.26;91230.56;2050945;70;20618;-75
2022/12/10 05:51:25;;;;;;;39.53;22.42;;;;;;;1.28;81.46;91228.66;2049525;69;20209;-74
2022/12/10 05:53:54;;;;;;;36.33;22.08;;;;;;;1.37;80.87;91224.41;2049269;70;20245;-75
2022/12/10 05:56:22;;;;;;;37.75;21.40;;;;;;;1.42;80.57;91234.47;2051478;69;20158;-76
2022/12/10 05:58:50;;;;;;;41.92;24.50;;;;;;;1.38;80.26;91231.44;2050813;70;20298;-74
2022/12/10 06:01:20;;;;;;;42.45;23.17;;;;;;;1.30;80.54;91237.13;2048902;70;20170;-75
2022/12/10 06:03:46;;;;;;;48.38;26.30;;;;;;;1.23;80.84;91233.19;2049880;70;20146;-75
2022/12/10 06:06:12;;;;;;;50.47;27.27;;;;;;;1.39;80.45;91241.19;2049647;70;20185;-76
2022/12/10 06:08:38;;;;;;;51.67;28.30;;;;;;;1.49;79.80;91241.91;2049845;70;20150;-75
2022/12/10 06:11:08;;;;;;;41.63;24.58;;;;;;;1.46;80.05;91240.28;2049502;70;20166;-75
2022/12/10 06:13:35;;;;;;;35.53;22.33;;;;;;;1.46;79.72;91248.63;2050031;69;20154;-74
2022/12/10 06:16:09;;;;;;;38.90;22.23;;;;;;;1.56;79.40;91252.13;2050158;70;20150;-75
2022/12/10 06:18:35;;;;;;;39.63;21.92;;;;;;;1.57;79.40;91245.25;2043787;70;20147;-76
2022/12/10 06:21:09;;;;;;;44.90;24.25;;;;;;;1.58;79.39;91251.53;2043731;70;20251;-76
2022/12/10 06:23:36;;;;;;;56.33;29.42;;;;;;;1.52;79.66;91260.16;2042854;70;20163;-75
2022/12/10 06:26:23;;;;;;;60.08;31.55;;;;;;;1.23;80.62;91247.03;2043158;70;21585;-74
2022/12/10 06:28:50;;;;;;;55.05;30.67;;;;;;;1.37;80.90;91255.63;2042754;70;20249;-75
2022/12/10 06:31:16;;;;;;;50.92;29.05;;;;;;;1.42;80.39;91267.75;2044031;70;20158;-76
2022/12/10 06:33:44;;;;;;;56.00;28.25;;;;;;;1.17;80.78;91268.06;2042720;70;20151;-76
2022/12/10 06:36:14;;;;;;;47.75;25.95;;;;;;;1.16;81.57;91269.41;2043934;70;20159;-75
2022/12/10 06:38:40;;;;;;;48.22;27.23;;;;;;;1.36;80.98;91267.31;2042386;70;20234;-76
2022/12/10 06:41:09;;;;;;;48.50;26.13;;;;;;;1.35;80.27;91268.63;2043758;70;20615;-75
2022/12/10 06:43:36;;;;;;;44.55;25.00;;;;;;;1.19;81.46;91273.75;2043916;70;20143;-75
2022/12/10 06:46:28;;;;;;;47.40;27.63;;;;;;;1.05;81.37;91265.16;2043659;70;20586;-75
2022/12/10 06:48:53;;;;;;;50.10;26.73;;;;;;;1.00;82.29;91261.34;2042576;70;20226;-76
2022/12/10 06:51:19;;;;;;;52.45;28.67;;;;;;;1.26;81.82;91267.34;2043142;70;20147;-74
2022/12/10 06:53:45;;;;;;;49.70;27.25;;;;;;;1.36;81.79;91270.81;2042301;70;20159;-75
2022/12/10 06:56:14;;;;;;;48.42;27.73;;;;;;;1.51;81.09;91273.28;2041818;70;20227;-76
2022/12/10 06:58:41;;;;;;;44.90;24.73;;;;;;;1.50;80.52;91263.50;2041767;70;20163;-75
2022/12/10 07:01:21;;;;;;;41.47;24.00;;;;;;;1.37;80.73;91246.59;2043830;70;20242;-76
2022/12/10 07:03:53;;;;;;;48.05;27.23;;;;;;;1.41;81.22;91249.66;2042256;70;20163;-76
2022/12/10 07:06:19;;;;;;;53.27;27.83;;;;;;;1.40;80.93;91253.75;2042536;70;20162;-76
2022/12/10 07:08:45;;;;;;;64.68;30.05;;;;;;;1.12;81.99;91249.69;2041758;70;20226;-74
2022/12/10 07:11:14;;;;;;;55.33;29.42;;;;;;;1.26;81.80;91254.19;2042700;70;20252;-75
2022/12/10 07:13:40;;;;;;;50.90;27.63;;;;;;;1.07;83.63;91253.50;2043555;70;20155;-76
2022/12/10 07:16:18;;;;;;;52.55;27.58;;;;;;;1.26;83.07;91256.25;2044029;70;20213;-75
2022/12/10 07:18:44;;;;;;;52.97;28.13;;;;;;;1.10;83.31;91253.06;2051288;70;20142;-76
2022/12/10 07:21:18;;;;;;;55.30;28.58;;;;;;;1.05;83.56;91253.34;2051306;70;20160;-76
2022/12/10 07:23:44;;;;;;;53.70;27.92;;;;;;;1.07;83.45;91251.44;2051755;70;20213;-76
2022/12/10 07:26:10;;;;;;;54.13;29.52;;;;;;;1.19;83.00;91249.56;2051382;70;20162;-76
2022/12/10 07:28:35;;;;;;;51.35;29.05;;;;;;;1.11;83.12;91251.75;2051852;69;20154;-76
2022/12/10 07:31:05;;;;;;;48.85;26.75;;;;;;;1.16;83.55;91241.69;2051801;70;20150;-75
2022/12/10 07:33:31;;;;;;;48.33;25.02;;;;;;;1.25;82.57;91249.97;2051831;69;20142;-76
2022/12/10 07:35:57;;;;;;;52.40;27.95;;;;;;;1.21;82.98;91258.00;2050918;70;20190;-75
2022/12/10 07:38:23;;;;;;;49.08;27.60;;;;;;;1.43;81.75;91253.31;2051693;70;20256;-76
2022/12/10 07:40:49;;;;;;;45.42;25.88;;;;;;;1.57;81.25;91248.03;2051038;70;20223;-75
2022/12/10 07:43:16;;;;;;;53.10;26.35;;;;;;;1.52;81.20;91243.50;2051684;70;20153;-75
2022/12/10 07:45:41;;;;;;;45.13;25.10;;;;;;;1.58;80.84;91251.53;2051391;69;20138;-75
2022/12/10 07:48:07;;;;;;;43.90;25.15;;;;;;;1.70;80.27;91247.53;2051604;70;20146;-75
2022/12/10 07:50:32;;;;;;;48.83;25.40;;;;;;;1.70;80.12;91255.13;2051905;70;20586;-75
2022/12/10 07:52:58;;;;;;;46.47;25.05;;;;;;;1.68;80.23;91247.38;2051832;70;20280;-75
2022/12/10 07:55:24;;;;;;;46.60;26.52;;;;;;;1.74;80.35;91250.59;2051218;70;20154;-76
2022/12/10 07:57:49;;;;;;;43.78;24.90;;;;;;;1.83;79.46;91256.69;2051786;70;20212;-76
2022/12/10 08:00:15;;;;;;;44.78;24.98;;;;;;;1.72;80.10;91263.59;2051903;70;20222;-76
2022/12/10 08:02:41;;;;;;;70.45;34.63;;;;;;;1.54;80.92;91265.81;2051161;70;20157;-76
2022/12/10 08:05:07;;;;;;;56.08;30.30;;;;;;;1.39;80.99;91266.88;2051258;70;20625;-76
2022/12/10 08:07:33;;;;;;;51.17;29.98;;;;;;;1.35;81.50;91269.38;2051729;70;20182;-76
2022/12/10 08:09:58;;;;;;;55.22;30.35;;;;;;;1.31;81.77;91258.00;2051691;69;20184;-75
2022/12/10 08:12:24;;;;;;;56.90;30.02;;;;;;;1.33;82.37;91260.91;2051666;70;20126;-75
2022/12/10 08:14:50;;;;;;;54.47;28.73;;;;;;;1.51;81.38;91267.00;2051276;70;20146;-75
2022/12/10 08:17:15;;;;;;;52.40;29.05;;;;;;;1.41;81.47;91257.97;2051596;69;20154;-75
2022/12/10 08:19:41;;;;;;;53.70;29.70;;;;;;;1.50;80.87;91265.53;2051707;69;20150;-75
2022/12/10 08:22:07;;;;;;;44.38;24.67;;;;;;;1.52;81.04;91249.78;2051696;69;20217;-75
2022/12/10 08:24:32;;;;;;;45.08;25.88;;;;;;;1.64;80.95;91263.75;2051195;70;20174;-74
2022/12/10 08:26:58;;;;;;;47.58;26.50;;;;;;;1.32;81.14;91264.25;2051557;70;20146;-75
2022/12/10 08:29:23;;;;;;;46.28;25.52;;;;;;;1.34;81.67;91261.63;2051612;70;20178;-75
2022/12/10 08:31:49;;;;;;;45.92;24.73;;;;;;;1.51;81.34;91256.66;2051671;70;20142;-76
2022/12/10 08:34:18;;;;;;;43.03;25.02;;;;;;;1.70;80.30;91260.69;2051327;70;20563;-75
2022/12/10 08:36:44;;;;;;;44.08;25.10;;;;;;;1.71;80.44;91267.69;2051463;70;20178;-76
2022/12/10 08:39:14;;;;;;;46.78;26.40;;;;;;;1.58;80.64;91266.13;2051428;70;20150;-76
2022/12/10 08:41:41;;;;;;;45.75;25.67;;;;;;;1.80;79.98;91269.72;2051468;69;20158;-75
2022/12/10 08:44:06;;;;;;;41.63;24.83;;;;;;;1.89;79.83;91282.09;2051550;70;20563;-75
2022/12/10 08:46:32;;;;;;;46.60;24.90;;;;;;;1.91;79.52;91274.63;2051018;70;20173;-75
2022/12/10 08:48:58;;;;;;;42.95;24.67;;;;;;;1.99;78.99;91282.78;2051595;70;20153;-75
2022/12/10 08:51:25;;;;;;;44.20;25.73;;;;;;;1.88;79.32;91275.06;2051678;70;20149;-75
2022/12/10 08:53:51;;;;;;;43.28;24.52;;;;;;;1.99;79.43;91271.69;2050416;70;20142;-75
2022/12/10 08:56:16;;;;;;;51.30;28.60;;;;;;;1.91;79.36;91273.91;2051045;70;20174;-74
2022/12/10 08:58:42;;;;;;;55.10;29.10;;;;;;;1.91;79.59;91274.63;2051494;69;20235;-75
2022/12/10 09:01:17;;;;;;;50.65;28.85;;;;;;;2.02;79.40;91276.06;2051480;70;20573;-78
2022/12/10 09:03:43;;;;;;;50.78;28.30;;;;;;;2.12;79.10;91281.56;2051135;69;20181;-76
2022/12/10 09:06:12;;;;;;;49.42;28.10;;;;;;;2.06;78.78;91281.88;2051483;70;20513;-76
2022/12/10 09:08:37;;;;;;;49.20;26.88;;;;;;;2.02;79.07;91278.84;2050753;70;20186;-75
2022/12/10 09:11:16;;;;;;;47.25;26.83;;;;;;;1.95;79.67;91279.72;2051375;70;20197;-76
2022/12/10 09:13:42;;;;;;;50.20;28.83;;;;;;;2.04;79.21;91279.69;2051142;69;20146;-76
2022/12/10 09:16:08;;;;;;;51.70;30.05;;;;;;;2.14;78.94;91287.97;2051453;69;20279;-75
2022/12/10 09:18:34;;;;;;;45.88;26.52;;;;;;;2.23;78.25;91284.44;2051593;70;20147;-75
2022/12/10 09:21:04;;;;;;;47.22;26.98;;;;;;;2.04;78.96;91285.25;2051326;70;20146;-75
2022/12/10 09:23:30;;;;;;;47.53;27.83;;;;;;;1.92;79.63;91289.22;2051041;70;20173;-75
2022/12/10 09:25:56;;;;;;;49.95;27.40;;;;;;;2.15;79.28;91294.25;2051535;69;20258;-74
2022/12/10 09:28:21;;;;;;;47.30;26.38;;;;;;;2.32;78.51;91291.25;2051349;70;20192;-74
2022/12/10 09:30:56;;;;;;;49.00;28.30;;;;;;;2.42;78.59;91291.94;2051480;70;20134;-75
2022/12/10 09:33:22;;;;;;;51.05;27.88;;;;;;;2.42;78.76;91288.44;2051066;70;20201;-75
2022/12/10 09:35:47;;;;;;;45.90;27.45;;;;;;;2.53;78.19;91285.03;2051410;69;20169;-74
2022/12/10 09:38:13;;;;;;;48.65;26.95;;;;;;;2.46;78.66;91285.94;2051533;69;20614;-76
2022/12/10 09:40:47;;;;;;;49.72;27.35;;;;;;;2.34;78.75;91279.56;2051147;70;20150;-75
2022/12/10 09:43:26;;;;;;;47.42;27.67;;;;;;;2.42;78.91;91275.28;2050991;69;20240;-76
2022/12/10 09:46:07;;;;;;;50.78;28.40;;;;;;;2.52;78.54;91264.88;2051280;69;20186;-77
2022/12/10 09:48:51;;;;;;;46.92;28.25;;;;;;;2.83;78.16;91271.69;2051438;70;20155;-76
2022/12/10 09:51:19;;;;;;;47.75;26.25;;;;;;;2.94;77.20;91271.75;2051331;69;20187;-77
2022/12/10 09:53:48;;;;;;;44.45;26.35;;;;;;;2.88;77.23;91260.22;2050767;70;20130;-76
2022/12/10 09:56:22;;;;;;;45.83;26.42;;;;;;;2.83;77.08;91266.84;2051069;70;20240;-77
2022/12/10 09:58:48;;;;;;;44.20;26.75;;;;;;;2.72;77.61;91267.53;2051471;69;20200;-77
2022/12/10 10:01:17;;;;;;;47.38;27.80;;;;;;;2.67;76.70;91263.75;2051309;70;20566;-76
2022/12/10 10:03:42;;;;;;;44.97;27.38;;;;;;;2.84;77.06;91264.78;2051058;69;20150;-77
2022/12/10 10:06:12;;;;;;;46.00;27.77;;;;;;;2.87;77.49;91260.84;2051373;69;20158;-75
2022/12/10 10:08:42;;;;;;;45.63;28.27;;;;;;;3.12;77.60;91263.88;2051216;69;20146;-75
2022/12/10 10:11:17;;;;;;;49.08;28.60;;;;;;;3.22;76.11;91261.72;2051413;69;20158;-75
2022/12/10 10:13:59;;;;;;;45.45;28.00;;;;;;;3.16;76.86;91255.03;2050921;70;20159;-76
2022/12/10 10:16:30;;;;;;;47.80;28.65;;;;;;;3.42;76.65;91258.78;2050997;70;20181;-77
2022/12/10 10:19:04;;;;;;;44.28;27.13;;;;;;;3.52;75.95;91256.63;2050848;70;20209;-77
2022/12/10 10:21:39;;;;;;;45.78;27.30;;;;;;;3.44;75.48;91259.66;2051263;70;20158;-78
2022/12/10 10:24:12;;;;;;;46.65;27.25;;;;;;;3.54;75.33;91253.97;2050637;70;20159;-77
2022/12/10 10:26:39;;;;;;;47.33;27.08;;;;;;;3.80;74.17;91252.84;2051138;70;20242;-76
2022/12/10 10:29:09;;;;;;;46.25;27.38;;;;;;;3.81;74.69;91253.56;2051251;69;20162;-73
2022/12/10 10:31:39;;;;;;;47.80;28.88;;;;;;;3.98;73.74;91252.50;2049928;70;20193;-73
2022/12/10 10:34:18;;;;;;;48.45;29.40;;;;;;;3.69;72.95;91247.97;2050158;70;20680;-73
2022/12/10 10:36:44;;;;;;;55.20;31.77;;;;;;;3.57;73.77;91244.41;2051220;70;20170;-75
2022/12/10 10:39:19;;;;;;;52.53;32.17;;;;;;;3.63;74.74;91241.31;2050827;69;20231;-74
2022/12/10 10:41:50;;;;;;;48.88;29.15;;;;;;;3.72;73.57;91240.47;2051251;70;20150;-73
2022/12/10 10:44:21;;;;;;;46.25;28.65;;;;;;;3.54;73.09;91234.50;2051288;69;20154;-74
2022/12/10 10:46:50;;;;;;;44.78;27.58;;;;;;;3.46;73.30;91236.78;2050897;70;20578;-77
2022/12/10 10:49:28;;;;;;;44.97;28.08;;;;;;;3.89;72.54;91240.13;2050599;70;20142;-77
2022/12/10 10:52:03;;;;;;;43.40;27.23;;;;;;;4.11;72.22;91237.25;2051364;70;20304;-76
2022/12/10 10:54:40;;;;;;;46.08;28.25;;;;;;;3.96;72.54;91236.41;2051105;70;20146;-76
2022/12/10 10:57:15;;;;;;;46.78;29.48;;;;;;;3.88;72.79;91227.53;2051942;70;20245;-78
2022/12/10 10:59:41;;;;;;;46.25;28.30;;;;;;;3.97;72.04;91228.75;2052200;70;20150;-74
2022/12/10 11:02:15;;;;;;;44.30;27.10;;;;;;;3.92;71.75;91222.22;2051358;69;20185;-77
2022/12/10 11:04:53;;;;;;;51.78;29.17;;;;;;;4.02;71.45;91220.03;2051048;70;20674;-76
2022/12/10 11:07:20;;;;;;;49.42;29.75;;;;;;;3.70;72.24;91229.22;2049058;70;20649;-74
2022/12/10 11:09:48;;;;;;;49.72;29.60;;;;;;;3.88;71.91;91213.63;2048892;70;20206;-75
2022/12/10 11:12:33;;;;;;;47.55;28.30;;;;;;;3.78;72.55;91226.94;2048965;70;20164;-75
2022/12/10 11:14:58;;;;;;;49.78;29.52;;;;;;;3.69;73.08;91225.69;2051164;70;20503;-77
2022/12/10 11:17:26;;;;;;;54.67;31.45;;;;;;;3.62;73.19;91214.78;2052269;70;20598;-74
2022/12/10 11:20:21;;;;;;;51.40;31.95;;;;;;;3.54;73.37;91212.97;2051865;70;20589;-76
2022/12/10 11:22:57;;;;;;;45.15;28.83;;;;;;;3.67;73.85;91211.69;2048012;70;20135;-76
2022/12/10 11:25:45;;;;;;;49.53;29.48;;;;;;;3.91;72.04;91218.00;2051799;69;20244;-78
2022/12/10 11:28:25;;;;;;;50.95;32.28;;;;;;;4.22;71.54;91214.25;2052362;69;20146;-76
2022/12/10 11:31:13;;;;;;;47.75;29.73;;;;;;;3.84;71.49;91213.38;2052406;69;20144;-73
2022/12/10 11:33:52;;;;;;;51.05;30.08;;;;;;;3.72;72.42;91218.94;2051868;69;20260;-75
2022/12/10 11:36:30;;;;;;;53.10;33.45;;;;;;;3.78;73.39;91221.38;2052209;70;20554;-75
2022/12/10 11:39:20;;;;;;;49.80;28.70;;;;;;;3.94;72.07;91210.47;2052120;69;20126;-76
2022/12/10 11:41:46;;;;;;;45.92;28.58;;;;;;;3.90;71.77;91213.03;2052228;70;20158;-73
2022/12/10 11:44:29;;;;;;;49.03;29.42;;;;;;;3.67;72.11;91220.03;2052018;69;20644;-77
2022/12/10 11:47:32;;;;;;;64.90;42.28;;;;;;;3.67;72.04;91211.69;2051523;69;20157;-75
2022/12/10 11:50:23;;;;;;;66.97;37.25;;;;;;;3.18;73.66;91203.06;2048977;70;20157;-76